Time;durP1;ratioP1;P1;durP2;ratioP2;P2;SDS_P1;SDS_P2;PMS_P1;PMS_P2;Temp;Humidity;BMP_temperature;BMP_pressure;BME280_temperature;BME280_humidity;BME280_pressure;Samples;Min_cycle;Max_cycle;Signal;HPM_P1;HPM_P2
2023/08/05 00:00:45;;;;;;;9.15;4.90;;;18.20;99.90;;;;;;6185099;23;20005;-80
2023/08/05 00:03:10;;;;;;;8.13;5.75;;;18.20;99.90;;;;;;6211855;23;20081;-81
2023/08/05 00:05:37;;;;;;;8.77;5.32;;;18.10;99.90;;;;;;6211810;23;20046;-80
2023/08/05 00:08:06;;;;;;;7.15;5.95;;;18.10;99.90;;;;;;6211538;23;20011;-82
2023/08/05 00:10:32;;;;;;;6.30;5.30;;;18.10;99.90;;;;;;6211999;23;20005;-81
2023/08/05 00:12:57;;;;;;;6.15;5.38;;;18.10;99.90;;;;;;6212022;23;20011;-81
2023/08/05 00:15:24;;;;;;;7.70;5.50;;;18.10;99.90;;;;;;6211291;23;20035;-81
2023/08/05 00:17:49;;;;;;;6.18;5.53;;;18.00;99.90;;;;;;6211824;23;20012;-81
2023/08/05 00:20:15;;;;;;;5.03;4.57;;;18.00;99.90;;;;;;6211562;23;20004;-81
2023/08/05 00:22:40;;;;;;;9.75;5.60;;;18.00;99.90;;;;;;6211851;23;20005;-81
2023/08/05 00:25:06;;;;;;;7.35;5.30;;;18.10;99.90;;;;;;6211731;23;20005;-81
2023/08/05 00:27:32;;;;;;;6.07;5.40;;;18.00;99.90;;;;;;6211766;23;20008;-81
2023/08/05 00:29:57;;;;;;;7.95;5.32;;;18.10;99.90;;;;;;6211429;23;20032;-82
2023/08/05 00:32:23;;;;;;;7.97;5.75;;;18.10;99.90;;;;;;6185052;23;20012;-81
2023/08/05 00:34:48;;;;;;;7.32;5.68;;;18.00;99.90;;;;;;6212191;23;20078;-82
2023/08/05 00:37:14;;;;;;;9.43;5.82;;;18.00;99.90;;;;;;6211459;23;20449;-81
2023/08/05 00:39:39;;;;;;;8.50;5.53;;;18.00;99.90;;;;;;6212146;23;19996;-81
2023/08/05 00:42:06;;;;;;;6.20;5.28;;;18.10;99.90;;;;;;6185133;23;20011;-81
2023/08/05 00:44:31;;;;;;;7.22;5.03;;;18.00;99.90;;;;;;6211624;23;20374;-81
2023/08/05 00:46:57;;;;;;;5.32;4.70;;;18.10;99.90;;;;;;6185330;23;20001;-80
2023/08/05 00:49:23;;;;;;;7.63;5.20;;;18.10;99.90;;;;;;6211435;23;20005;-81
2023/08/05 00:51:49;;;;;;;6.68;5.13;;;18.10;99.90;;;;;;6185278;23;20031;-81
2023/08/05 00:54:15;;;;;;;6.45;5.78;;;18.10;99.90;;;;;;6211178;23;20078;-80
2023/08/05 00:56:43;;;;;;;6.10;5.30;;;18.10;99.90;;;;;;6185227;23;20015;-81
2023/08/05 00:59:09;;;;;;;8.13;6.03;;;18.10;99.90;;;;;;6184165;23;20001;-81
2023/08/05 01:01:35;;;;;;;6.85;4.85;;;18.10;99.90;;;;;;6185910;23;20005;-80
2023/08/05 01:04:00;;;;;;;9.60;5.20;;;18.10;99.90;;;;;;6186942;23;20035;-81
2023/08/05 01:06:28;;;;;;;7.20;5.55;;;18.10;99.90;;;;;;6213160;23;20005;-81
2023/08/05 01:08:55;;;;;;;7.57;5.82;;;18.10;99.90;;;;;;6213618;23;20005;-81
2023/08/05 01:11:22;;;;;;;6.85;5.03;;;18.10;99.90;;;;;;6213510;23;20474;-81
2023/08/05 01:13:48;;;;;;;6.88;5.57;;;18.10;99.90;;;;;;6212965;23;20005;-81
2023/08/05 01:16:13;;;;;;;10.05;5.28;;;18.10;99.90;;;;;;6213248;23;20309;-81
2023/08/05 01:18:40;;;;;;;7.72;5.03;;;18.10;99.90;;;;;;6213520;23;20001;-81
2023/08/05 01:21:31;;;;;;;9.75;5.63;;;18.10;99.90;;;;;;6213257;23;20072;-81
2023/08/05 01:24:19;;;;;;;9.60;5.68;;;18.00;99.90;;;;;;6212289;23;20031;-81
2023/08/05 01:26:46;;;;;;;7.00;5.50;;;18.00;99.90;;;;;;6186857;23;20032;-82
2023/08/05 01:29:12;;;;;;;7.07;5.55;;;18.00;99.90;;;;;;6212662;23;20001;-82
2023/08/05 01:31:38;;;;;;;6.15;5.45;;;18.00;99.90;;;;;;6213458;23;20019;-81
2023/08/05 01:34:05;;;;;;;8.98;6.25;;;17.90;99.90;;;;;;6212764;23;20111;-82
2023/08/05 01:36:31;;;;;;;6.63;5.30;;;17.90;99.90;;;;;;6213019;23;20005;-81
2023/08/05 01:38:57;;;;;;;6.63;5.15;;;17.80;99.90;;;;;;6213345;23;20024;-81
2023/08/05 01:41:23;;;;;;;5.95;5.35;;;17.80;99.90;;;;;;6212002;23;20066;-81
2023/08/05 01:43:48;;;;;;;5.85;5.22;;;17.80;99.90;;;;;;6213294;23;20414;-81
2023/08/05 01:46:14;;;;;;;7.00;5.22;;;17.70;99.90;;;;;;6212758;23;20312;-82
2023/08/05 01:48:39;;;;;;;8.30;5.25;;;17.70;99.90;;;;;;6213129;23;20035;-82
2023/08/05 01:51:05;;;;;;;5.75;5.13;;;17.70;99.90;;;;;;6212768;23;20414;-82
2023/08/05 01:53:31;;;;;;;6.00;5.45;;;17.60;99.90;;;;;;6212827;23;20446;-82
2023/08/05 01:55:56;;;;;;;6.82;5.05;;;17.60;99.90;;;;;;6212254;23;20008;-81
2023/08/05 01:58:22;;;;;;;4.50;4.10;;;17.60;99.90;;;;;;6212648;23;20086;-81
2023/08/05 02:00:51;;;;;;;5.70;4.95;;;17.60;99.90;;;;;;6213192;23;20008;-81
2023/08/05 02:03:17;;;;;;;5.93;4.85;;;17.60;99.90;;;;;;6212748;23;20076;-81
2023/08/05 02:05:42;;;;;;;9.45;5.13;;;17.60;99.90;;;;;;6213393;23;20456;-82
2023/08/05 02:08:08;;;;;;;7.72;4.88;;;17.60;99.90;;;;;;6212776;23;20051;-82
2023/08/05 02:10:34;;;;;;;6.60;5.28;;;17.60;99.90;;;;;;6212394;23;20038;-82
2023/08/05 02:12:59;;;;;;;11.77;6.07;;;17.60;99.90;;;;;;6212329;23;20035;-82
2023/08/05 02:15:26;;;;;;;6.75;5.10;;;17.60;99.90;;;;;;6212360;23;20001;-82
2023/08/05 02:17:51;;;;;;;7.93;4.43;;;17.60;99.90;;;;;;6212976;23;20005;-81
2023/08/05 02:20:17;;;;;;;5.57;4.85;;;17.60;99.90;;;;;;6212091;23;20051;-81
2023/08/05 02:22:43;;;;;;;5.05;4.40;;;17.60;99.90;;;;;;6212925;23;19996;-81
2023/08/05 02:25:08;;;;;;;4.97;4.53;;;17.60;99.90;;;;;;6211916;23;20125;-81
2023/08/05 02:27:34;;;;;;;6.53;4.57;;;17.60;99.90;;;;;;6212882;23;20011;-82
2023/08/05 02:29:59;;;;;;;9.00;5.63;;;17.60;99.90;;;;;;6212851;23;20054;-81
2023/08/05 02:32:25;;;;;;;6.63;5.20;;;17.70;99.90;;;;;;6212469;23;20001;-81
2023/08/05 02:34:50;;;;;;;8.23;5.40;;;17.60;99.90;;;;;;6212722;23;20036;-81
2023/08/05 02:37:16;;;;;;;5.72;4.13;;;17.70;99.90;;;;;;6212164;23;20330;-81
2023/08/05 02:39:42;;;;;;;7.97;4.53;;;17.60;99.90;;;;;;6212095;23;20001;-81
2023/08/05 02:42:07;;;;;;;9.35;4.65;;;17.70;99.90;;;;;;6185805;23;20000;-82
2023/08/05 02:44:33;;;;;;;9.05;4.63;;;17.70;99.90;;;;;;6186129;23;20604;-81
2023/08/05 02:46:58;;;;;;;5.15;4.63;;;17.70;99.90;;;;;;6186019;23;20004;-81
2023/08/05 02:49:24;;;;;;;4.90;3.75;;;17.70;99.90;;;;;;6212006;23;20008;-81
2023/08/05 02:51:49;;;;;;;8.07;5.25;;;17.60;99.90;;;;;;6212731;23;20080;-81
2023/08/05 02:54:16;;;;;;;7.85;4.63;;;17.60;99.90;;;;;;6211182;23;20016;-81
2023/08/05 02:56:42;;;;;;;4.93;4.40;;;17.50;99.90;;;;;;6212493;23;20014;-81
2023/08/05 02:59:08;;;;;;;5.35;4.88;;;17.50;99.90;;;;;;6211990;23;20024;-81
2023/08/05 03:01:36;;;;;;;6.00;4.35;;;17.50;99.90;;;;;;6185801;23;20008;-81
2023/08/05 03:04:02;;;;;;;5.03;4.38;;;17.50;99.90;;;;;;6211913;23;20331;-82
2023/08/05 03:06:28;;;;;;;5.25;4.78;;;17.40;99.90;;;;;;6212335;23;20008;-81
2023/08/05 03:08:53;;;;;;;5.55;4.97;;;17.40;99.90;;;;;;6211789;23;20004;-82
2023/08/05 03:11:19;;;;;;;6.22;4.57;;;17.40;99.90;;;;;;6185146;23;20009;-82
2023/08/05 03:13:45;;;;;;;6.18;4.88;;;17.30;99.90;;;;;;6212551;23;20005;-82
2023/08/05 03:16:12;;;;;;;6.50;4.35;;;17.30;99.90;;;;;;6212054;23;20044;-81
2023/08/05 03:18:38;;;;;;;6.45;4.88;;;17.10;99.90;;;;;;6212097;23;20039;-81
2023/08/05 03:21:04;;;;;;;4.90;4.38;;;17.10;99.90;;;;;;6185821;23;19993;-81
2023/08/05 03:23:30;;;;;;;6.45;4.72;;;17.10;99.90;;;;;;6211422;23;20005;-81
2023/08/05 03:25:55;;;;;;;5.68;4.85;;;17.00;99.90;;;;;;6212275;23;20008;-81
2023/08/05 03:28:21;;;;;;;7.43;4.43;;;17.00;99.90;;;;;;6211603;23;20434;-81
2023/08/05 03:30:46;;;;;;;5.70;5.20;;;16.90;99.90;;;;;;6212179;23;20026;-82
2023/08/05 03:33:12;;;;;;;5.55;5.05;;;16.80;99.90;;;;;;6209690;23;20038;-81
2023/08/05 03:35:43;;;;;;;5.68;4.63;;;16.80;99.90;;;;;;6209912;23;20391;-81
2023/08/05 03:38:08;;;;;;;6.07;5.53;;;16.80;99.90;;;;;;6210961;23;19997;-81
2023/08/05 03:40:34;;;;;;;5.10;4.57;;;16.80;99.90;;;;;;6210860;23;20011;-81
2023/08/05 03:43:00;;;;;;;6.57;4.57;;;16.80;99.90;;;;;;6210765;23;20051;-81
2023/08/05 03:45:26;;;;;;;6.25;4.72;;;16.80;99.90;;;;;;6211731;23;20079;-81
2023/08/05 03:47:53;;;;;;;8.55;4.85;;;16.70;99.90;;;;;;6211731;23;20044;-81
2023/08/05 03:50:20;;;;;;;5.07;4.57;;;16.70;99.90;;;;;;6210920;23;20024;-81
2023/08/05 03:52:48;;;;;;;6.05;5.40;;;16.70;99.90;;;;;;6210701;23;20473;-81
2023/08/05 03:55:14;;;;;;;6.03;4.50;;;16.70;99.90;;;;;;6210765;23;20000;-81
2023/08/05 03:57:40;;;;;;;8.02;4.75;;;16.60;99.90;;;;;;6211975;23;20023;-81
2023/08/05 04:00:09;;;;;;;5.57;4.88;;;16.60;99.90;;;;;;6185298;23;20423;-81
2023/08/05 04:02:35;;;;;;;4.85;4.45;;;16.60;99.90;;;;;;6211944;23;19997;-81
2023/08/05 04:05:03;;;;;;;7.65;4.90;;;16.60;99.90;;;;;;6185516;23;20080;-81
2023/08/05 04:07:29;;;;;;;5.47;4.97;;;16.60;99.90;;;;;;6211397;23;20303;-81
2023/08/05 04:09:55;;;;;;;8.10;5.13;;;16.60;99.90;;;;;;6212217;23;20126;-81
2023/08/05 04:12:20;;;;;;;6.55;5.00;;;16.70;99.90;;;;;;6211542;23;20055;-81
2023/08/05 04:14:46;;;;;;;5.43;4.90;;;16.70;99.90;;;;;;6212366;23;19997;-81
2023/08/05 04:17:14;;;;;;;9.32;6.03;;;16.70;99.90;;;;;;6211138;23;20012;-81
2023/08/05 04:19:41;;;;;;;9.27;5.40;;;16.80;99.90;;;;;;6212031;23;20080;-81
2023/08/05 04:22:06;;;;;;;5.78;5.20;;;16.80;99.90;;;;;;6210851;23;20051;-81
2023/08/05 04:24:33;;;;;;;8.73;5.15;;;16.80;99.90;;;;;;6211634;23;20013;-82
2023/08/05 04:26:59;;;;;;;6.35;5.03;;;16.80;99.90;;;;;;6211681;23;20004;-82
2023/08/05 04:29:25;;;;;;;5.82;5.15;;;16.90;99.90;;;;;;6211643;23;20058;-82
2023/08/05 04:31:52;;;;;;;10.52;5.40;;;16.90;99.90;;;;;;6212094;23;20350;-82
2023/08/05 04:34:18;;;;;;;7.13;6.07;;;16.90;99.90;;;;;;6211331;23;20005;-82
2023/08/05 04:36:51;;;;;;;8.38;5.57;;;16.90;99.90;;;;;;6212055;23;20080;-82
2023/08/05 04:39:18;;;;;;;8.18;6.30;;;17.00;99.90;;;;;;6186593;23;20084;-82
2023/08/05 04:41:45;;;;;;;10.57;6.35;;;17.00;99.90;;;;;;6213833;23;20070;-81
2023/08/05 04:44:11;;;;;;;11.02;6.85;;;17.00;99.90;;;;;;6213642;23;20000;-81
2023/08/05 04:46:36;;;;;;;11.13;5.65;;;17.00;99.90;;;;;;6187129;23;20009;-82
2023/08/05 04:49:05;;;;;;;7.68;5.88;;;17.00;99.90;;;;;;6184745;23;20120;-82
2023/08/05 04:51:30;;;;;;;7.28;6.30;;;17.00;99.90;;;;;;6183958;23;20031;-82
2023/08/05 04:53:56;;;;;;;8.55;7.15;;;17.00;99.90;;;;;;6210022;23;20012;-82
2023/08/05 04:56:25;;;;;;;9.82;6.60;;;17.00;99.90;;;;;;6212287;23;20005;-82
2023/08/05 04:58:50;;;;;;;8.88;6.97;;;17.00;99.90;;;;;;6186462;23;20032;-81
2023/08/05 05:01:17;;;;;;;8.88;7.30;;;17.10;99.90;;;;;;6185246;23;20000;-81
2023/08/05 05:03:44;;;;;;;7.78;6.60;;;17.00;99.90;;;;;;6213757;23;20080;-82
2023/08/05 05:06:10;;;;;;;7.35;6.40;;;17.10;99.90;;;;;;6212526;23;20022;-81
2023/08/05 05:08:36;;;;;;;7.32;6.53;;;17.10;99.90;;;;;;6186888;23;20008;-82
2023/08/05 05:11:01;;;;;;;8.27;6.78;;;17.10;99.90;;;;;;6186554;23;20005;-82
2023/08/05 05:13:27;;;;;;;9.55;7.07;;;17.10;99.90;;;;;;6186687;23;20074;-81
2023/08/05 05:15:52;;;;;;;10.30;7.00;;;17.10;99.90;;;;;;6213123;23;20080;-82
2023/08/05 05:18:19;;;;;;;9.02;7.30;;;17.10;99.90;;;;;;6186065;23;20393;-82
2023/08/05 05:20:49;;;;;;;9.93;6.90;;;17.10;99.90;;;;;;6212976;23;20077;-81
2023/08/05 05:23:15;;;;;;;8.48;7.03;;;17.20;99.90;;;;;;6186285;23;20000;-82
2023/08/05 05:25:40;;;;;;;8.07;7.28;;;17.20;99.90;;;;;;6186733;23;20043;-81
2023/08/05 05:28:06;;;;;;;8.75;6.88;;;17.20;99.90;;;;;;6213103;23;20000;-81
2023/08/05 05:30:31;;;;;;;12.57;7.43;;;17.30;99.90;;;;;;6213354;23;20004;-82
2023/08/05 05:32:57;;;;;;;9.90;7.82;;;17.30;99.90;;;;;;6213259;23;20027;-80
2023/08/05 05:35:23;;;;;;;10.15;7.57;;;17.30;99.90;;;;;;6185560;23;20485;-81
2023/08/05 05:37:48;;;;;;;9.20;7.70;;;17.30;99.90;;;;;;6186579;23;20338;-81
2023/08/05 05:40:14;;;;;;;8.13;7.28;;;17.40;99.90;;;;;;6185960;23;20055;-82
2023/08/05 05:42:40;;;;;;;8.23;7.43;;;17.40;99.90;;;;;;6213307;23;20012;-81
2023/08/05 05:45:06;;;;;;;9.85;8.35;;;17.50;99.90;;;;;;6212907;23;20434;-82
2023/08/05 05:47:31;;;;;;;9.18;7.53;;;17.50;99.90;;;;;;6212808;23;20008;-82
2023/08/05 05:49:57;;;;;;;10.90;8.75;;;17.50;99.90;;;;;;6212311;23;20004;-82
2023/08/05 05:52:22;;;;;;;10.65;7.90;;;17.50;99.90;;;;;;6212518;23;20011;-81
2023/08/05 05:54:48;;;;;;;11.43;8.82;;;17.60;99.90;;;;;;6212992;23;20020;-81
2023/08/05 05:57:14;;;;;;;11.68;8.90;;;17.60;99.90;;;;;;6212574;23;20050;-81
2023/08/05 05:59:39;;;;;;;9.57;8.65;;;17.60;99.90;;;;;;6213308;23;20001;-81
2023/08/05 06:02:08;;;;;;;12.77;8.65;;;17.60;99.90;;;;;;6212729;23;20032;-81
2023/08/05 06:04:34;;;;;;;9.57;8.63;;;17.60;99.90;;;;;;6212187;23;20005;-82
2023/08/05 06:07:01;;;;;;;10.77;9.68;;;17.60;99.90;;;;;;6212990;23;20008;-82
2023/08/05 06:09:27;;;;;;;12.23;10.38;;;17.70;99.90;;;;;;6212795;23;20076;-82
2023/08/05 06:11:53;;;;;;;11.93;10.43;;;17.70;99.90;;;;;;6213078;23;20054;-82
2023/08/05 06:14:20;;;;;;;11.07;9.32;;;17.70;99.90;;;;;;6212489;23;20005;-82
2023/08/05 06:16:46;;;;;;;12.38;9.90;;;17.80;99.90;;;;;;6212908;23;19997;-82
2023/08/05 06:19:11;;;;;;;9.93;8.75;;;17.90;99.90;;;;;;6212132;23;20007;-82
2023/08/05 06:21:37;;;;;;;9.68;8.68;;;17.90;99.90;;;;;;6212711;23;19993;-81
2023/08/05 06:24:03;;;;;;;11.57;10.20;;;17.90;99.90;;;;;;6185781;23;20047;-82
2023/08/05 06:26:29;;;;;;;11.25;9.98;;;18.00;99.90;;;;;;6212606;23;20008;-82
2023/08/05 06:28:54;;;;;;;13.27;11.93;;;18.10;99.90;;;;;;6212943;23;20067;-81
2023/08/05 06:31:20;;;;;;;14.52;12.00;;;18.10;99.90;;;;;;6212076;23;20035;-82
2023/08/05 06:33:46;;;;;;;14.52;13.13;;;18.20;99.90;;;;;;6212796;23;20005;-82
2023/08/05 06:36:11;;;;;;;13.98;12.38;;;18.30;99.90;;;;;;6186097;23;20028;-82
2023/08/05 06:38:37;;;;;;;14.02;12.57;;;18.30;99.90;;;;;;6185994;23;20308;-82
2023/08/05 06:41:03;;;;;;;16.63;12.18;;;18.40;99.90;;;;;;6185703;23;20032;-82
2023/08/05 06:43:28;;;;;;;14.35;12.85;;;18.50;99.90;;;;;;6185962;23;20012;-82
2023/08/05 06:45:54;;;;;;;17.65;13.25;;;18.60;99.90;;;;;;6212366;23;20000;-82
2023/08/05 06:48:19;;;;;;;15.50;14.00;;;18.70;99.90;;;;;;6185652;23;20008;-81
2023/08/05 06:50:45;;;;;;;17.55;13.40;;;18.70;99.90;;;;;;6212847;23;20100;-81
2023/08/05 06:53:10;;;;;;;15.65;13.43;;;18.80;99.90;;;;;;6212124;23;20020;-82
2023/08/05 06:55:36;;;;;;;16.85;14.77;;;18.90;99.90;;;;;;6186287;23;20434;-82
2023/08/05 06:58:02;;;;;;;16.50;14.82;;;19.00;99.90;;;;;;6212200;23;20623;-82
2023/08/05 07:00:27;;;;;;;16.00;14.43;;;19.10;99.90;;;;;;6211732;23;20092;-81
2023/08/05 07:02:53;;;;;;;15.25;13.73;;;19.20;99.90;;;;;;6186236;23;19997;-82
2023/08/05 07:05:19;;;;;;;17.23;13.73;;;19.20;99.90;;;;;;6211891;23;19996;-82
2023/08/05 07:07:44;;;;;;;19.55;14.20;;;19.30;99.90;;;;;;6212691;23;20032;-82
2023/08/05 07:10:11;;;;;;;15.40;12.40;;;19.30;99.90;;;;;;6212178;23;20008;-81
2023/08/05 07:12:37;;;;;;;14.02;11.90;;;19.40;99.90;;;;;;6185892;23;20319;-82
2023/08/05 07:15:04;;;;;;;13.82;10.68;;;19.40;99.90;;;;;;6185211;23;20020;-82
2023/08/05 07:17:29;;;;;;;12.57;10.75;;;19.50;99.90;;;;;;6212267;23;20075;-82
2023/08/05 07:19:55;;;;;;;10.88;9.77;;;19.50;99.90;;;;;;6212155;23;20028;-73
2023/08/05 07:22:20;;;;;;;10.45;9.45;;;19.50;99.90;;;;;;6212256;23;20427;-74
2023/08/05 07:24:46;;;;;;;10.48;9.38;;;19.60;99.90;;;;;;6212379;23;19997;-73
2023/08/05 07:27:12;;;;;;;9.23;8.25;;;19.50;99.90;;;;;;6212084;23;20339;-74
2023/08/05 07:29:41;;;;;;;8.48;7.65;;;19.50;99.90;;;;;;6211591;23;20001;-74
2023/08/05 07:32:07;;;;;;;10.88;7.95;;;19.60;99.90;;;;;;6212287;23;20357;-74
2023/08/05 07:34:33;;;;;;;8.43;7.07;;;19.70;99.90;;;;;;6211563;23;20091;-74
2023/08/05 07:36:59;;;;;;;11.57;7.20;;;19.80;99.90;;;;;;6211928;23;20012;-74
2023/08/05 07:39:28;;;;;;;8.85;6.68;;;20.00;99.90;;;;;;6211559;23;20027;-74
2023/08/05 07:41:53;;;;;;;11.07;6.10;;;20.20;99.90;;;;;;6212455;23;20096;-73
2023/08/05 07:44:19;;;;;;;7.15;5.35;;;20.40;99.90;;;;;;6184462;23;20394;-74
2023/08/05 07:46:47;;;;;;;4.80;4.10;;;20.40;99.90;;;;;;6211742;23;20008;-74
2023/08/05 07:49:13;;;;;;;4.18;3.78;;;20.40;99.90;;;;;;6185022;23;20009;-74
2023/08/05 07:51:39;;;;;;;7.25;4.07;;;20.50;99.90;;;;;;6212164;23;20000;-74
2023/08/05 07:54:05;;;;;;;5.65;3.97;;;20.40;99.90;;;;;;6211555;23;20469;-73
2023/08/05 07:56:33;;;;;;;5.30;3.63;;;20.40;99.90;;;;;;6211917;23;20004;-74
2023/08/05 07:58:58;;;;;;;5.88;3.50;;;20.50;99.90;;;;;;6211301;23;20168;-74
2023/08/05 08:01:24;;;;;;;3.38;2.88;;;20.50;99.90;;;;;;6211928;23;20421;-74
2023/08/05 08:03:53;;;;;;;4.22;3.83;;;20.40;99.90;;;;;;6185206;23;20004;-73
2023/08/05 08:06:20;;;;;;;4.00;3.53;;;20.40;99.90;;;;;;6211241;23;20020;-73
2023/08/05 08:08:47;;;;;;;3.80;3.38;;;20.30;99.90;;;;;;6212070;23;20000;-74
2023/08/05 08:11:13;;;;;;;8.57;3.92;;;20.30;99.90;;;;;;6211691;23;20075;-74
2023/08/05 08:13:40;;;;;;;4.95;4.40;;;20.20;99.90;;;;;;6211626;23;19997;-74
2023/08/05 08:16:06;;;;;;;5.53;4.30;;;20.20;99.90;;;;;;6211569;23;20341;-73
2023/08/05 08:18:32;;;;;;;6.70;4.60;;;20.20;99.90;;;;;;6211775;23;20031;-74
2023/08/05 08:20:58;;;;;;;4.82;3.63;;;20.30;99.90;;;;;;6211929;23;20000;-74
2023/08/05 08:23:25;;;;;;;6.75;5.40;;;20.30;99.90;;;;;;6210757;23;20439;-73
2023/08/05 08:25:50;;;;;;;6.10;4.55;;;20.40;99.90;;;;;;6211475;23;20000;-74
2023/08/05 08:28:16;;;;;;;5.82;4.15;;;20.50;99.90;;;;;;6210890;23;20012;-74
2023/08/05 08:30:55;;;;;;;3.58;3.20;;;20.60;99.90;;;;;;6211617;23;20079;-74
2023/08/05 08:33:25;;;;;;;4.03;3.72;;;20.70;99.90;;;;;;6210649;23;20000;-74
2023/08/05 08:35:51;;;;;;;5.82;3.95;;;20.60;99.90;;;;;;6211596;23;20001;-74
2023/08/05 08:38:18;;;;;;;7.45;3.90;;;20.60;99.90;;;;;;6183854;23;20326;-74
2023/08/05 08:40:57;;;;;;;5.47;3.83;;;20.50;99.90;;;;;;6211630;23;20009;-74
2023/08/05 08:43:23;;;;;;;5.55;5.00;;;20.50;99.90;;;;;;6210462;23;20007;-74
2023/08/05 08:45:53;;;;;;;4.57;4.07;;;20.50;99.90;;;;;;6211717;23;20028;-74
2023/08/05 08:48:19;;;;;;;6.75;4.47;;;20.50;99.90;;;;;;6184613;23;20008;-74
2023/08/05 08:50:46;;;;;;;6.30;5.07;;;20.50;99.90;;;;;;6211833;23;20051;-74
2023/08/05 08:53:15;;;;;;;5.75;5.22;;;20.50;99.90;;;;;;6210833;23;20005;-74
2023/08/05 08:55:42;;;;;;;4.95;4.45;;;20.50;99.90;;;;;;6211621;23;20005;-74
2023/08/05 08:58:08;;;;;;;5.53;4.95;;;20.50;99.90;;;;;;6210974;23;20094;-74
2023/08/05 09:00:35;;;;;;;6.47;5.03;;;20.50;99.90;;;;;;6184687;23;20004;-73
2023/08/05 09:03:01;;;;;;;7.68;5.45;;;20.40;99.90;;;;;;6211508;23;20001;-74
2023/08/05 09:05:34;;;;;;;7.05;5.47;;;20.30;99.90;;;;;;6211334;23;20437;-74
2023/08/05 09:08:02;;;;;;;6.72;5.88;;;20.30;99.90;;;;;;6211465;23;20001;-74
2023/08/05 09:10:27;;;;;;;5.70;4.75;;;20.30;99.90;;;;;;6211507;23;20028;-74
2023/08/05 09:12:57;;;;;;;6.90;6.22;;;20.40;99.90;;;;;;6211310;23;20008;-74
2023/08/05 09:15:30;;;;;;;6.03;5.50;;;20.40;99.90;;;;;;6211368;23;20075;-75
2023/08/05 09:17:57;;;;;;;6.13;5.53;;;20.40;99.90;;;;;;6211687;23;20009;-75
2023/08/05 09:20:24;;;;;;;6.40;5.80;;;20.50;99.90;;;;;;6210957;23;20107;-74
2023/08/05 09:22:55;;;;;;;6.78;6.18;;;20.60;99.90;;;;;;6212666;23;20032;-73
2023/08/05 09:25:21;;;;;;;6.18;5.57;;;20.80;99.90;;;;;;6211959;23;20001;-73
2023/08/05 09:27:47;;;;;;;5.55;5.05;;;20.80;99.80;;;;;;6213419;23;20062;-73
2023/08/05 09:30:15;;;;;;;4.45;4.03;;;21.00;99.80;;;;;;6213068;23;20461;-73
2023/08/05 09:32:45;;;;;;;4.28;3.88;;;21.20;99.70;;;;;;6212168;23;20410;-73
2023/08/05 09:35:12;;;;;;;6.18;3.83;;;21.40;99.50;;;;;;6212517;23;20000;-73
2023/08/05 09:37:41;;;;;;;5.55;3.47;;;21.50;99.30;;;;;;6185649;23;20008;-73
2023/08/05 09:40:28;;;;;;;4.93;4.47;;;21.70;98.80;;;;;;6211749;23;20330;-73
2023/08/05 09:43:03;;;;;;;5.75;4.07;;;21.80;98.00;;;;;;6212911;23;20000;-73
2023/08/05 09:45:32;;;;;;;2.97;2.78;;;21.80;98.00;;;;;;6212559;23;20079;-74
2023/08/05 09:48:09;;;;;;;4.78;4.30;;;21.90;97.80;;;;;;6212712;23;20010;-73
2023/08/05 09:50:40;;;;;;;5.18;3.97;;;21.90;97.30;;;;;;6212856;23;20502;-73
2023/08/05 09:53:07;;;;;;;4.75;4.07;;;21.90;97.50;;;;;;6211797;23;20067;-74
2023/08/05 09:55:35;;;;;;;5.47;3.95;;;21.90;97.80;;;;;;6185341;23;20446;-73
2023/08/05 09:58:07;;;;;;;3.58;3.08;;;22.00;97.30;;;;;;6185795;23;20008;-73
2023/08/05 10:00:33;;;;;;;4.32;3.92;;;22.20;96.80;;;;;;6212388;23;20078;-74
2023/08/05 10:03:00;;;;;;;5.13;4.00;;;22.30;96.50;;;;;;6212738;23;20331;-73
2023/08/05 10:05:26;;;;;;;4.57;3.45;;;22.40;96.30;;;;;;6212353;23;20103;-73
2023/08/05 10:07:55;;;;;;;7.07;4.88;;;22.40;96.20;;;;;;6212508;23;20192;-73
2023/08/05 10:10:21;;;;;;;5.45;3.97;;;22.50;96.20;;;;;;6211649;23;20080;-73
2023/08/05 10:12:57;;;;;;;4.65;4.18;;;22.70;96.10;;;;;;6212746;23;20035;-73
2023/08/05 10:15:28;;;;;;;4.60;4.20;;;22.90;96.00;;;;;;6211865;23;20091;-73
2023/08/05 10:17:54;;;;;;;4.72;4.18;;;23.00;95.60;;;;;;6212694;23;20005;-73
2023/08/05 10:20:20;;;;;;;4.97;4.55;;;23.00;95.30;;;;;;6211836;23;20012;-73
2023/08/05 10:23:04;;;;;;;4.05;3.65;;;23.00;95.30;;;;;;6212934;23;19996;-73
2023/08/05 10:25:46;;;;;;;4.93;3.85;;;23.10;95.00;;;;;;6211606;23;20008;-72
2023/08/05 10:28:25;;;;;;;4.68;4.28;;;23.00;94.90;;;;;;6185208;23;20011;-75
2023/08/05 10:30:53;;;;;;;5.03;3.63;;;22.90;94.90;;;;;;6211984;23;20427;-74
2023/08/05 10:33:19;;;;;;;4.57;4.18;;;22.90;95.10;;;;;;6211089;23;20075;-74
2023/08/05 10:35:45;;;;;;;4.45;4.05;;;22.90;95.10;;;;;;6212019;23;20470;-74
2023/08/05 10:38:19;;;;;;;5.05;4.22;;;23.00;95.20;;;;;;6211120;23;20055;-74
2023/08/05 10:41:04;;;;;;;5.18;3.78;;;23.20;95.10;;;;;;6212690;23;20076;-74
2023/08/05 10:43:37;;;;;;;4.15;3.70;;;23.40;94.80;;;;;;6211778;23;20007;-74
2023/08/05 10:46:06;;;;;;;4.10;3.70;;;23.70;94.50;;;;;;6184499;23;20500;-75
2023/08/05 10:48:34;;;;;;;4.78;4.00;;;23.90;94.20;;;;;;6212441;23;20011;-75
2023/08/05 10:51:13;;;;;;;4.20;3.80;;;23.90;94.00;;;;;;6212049;23;20005;-75
2023/08/05 10:53:42;;;;;;;5.80;4.45;;;23.90;93.70;;;;;;6211272;23;20465;-75
2023/08/05 10:56:12;;;;;;;6.72;4.85;;;23.90;93.50;;;;;;6211838;23;20099;-75
2023/08/05 10:58:50;;;;;;;5.18;3.60;;;23.70;93.40;;;;;;6211683;23;20039;-75
2023/08/05 11:01:16;;;;;;;3.65;3.35;;;23.60;93.40;;;;;;6212192;23;20011;-76
2023/08/05 11:03:45;;;;;;;3.92;2.78;;;23.50;93.50;;;;;;6212587;23;20004;-75
2023/08/05 11:06:12;;;;;;;4.78;3.17;;;23.30;93.60;;;;;;6211410;23;20279;-75
2023/08/05 11:08:40;;;;;;;4.88;3.97;;;23.30;93.80;;;;;;6211259;23;20354;-74
2023/08/05 11:11:08;;;;;;;3.80;3.38;;;23.40;93.90;;;;;;6211812;23;20004;-75
2023/08/05 11:13:38;;;;;;;3.83;3.42;;;23.60;94.20;;;;;;6212096;23;20010;-75
2023/08/05 11:16:24;;;;;;;2.95;2.67;;;23.70;93.80;;;;;;6211936;23;20011;-74
2023/08/05 11:18:57;;;;;;;3.22;2.72;;;23.90;93.50;;;;;;6211486;23;20705;-75
2023/08/05 11:21:23;;;;;;;3.55;3.22;;;23.90;93.00;;;;;;6184891;23;20018;-74
2023/08/05 11:23:50;;;;;;;2.58;2.38;;;24.00;92.70;;;;;;6212458;23;20004;-75
2023/08/05 11:26:21;;;;;;;3.85;2.47;;;24.00;92.50;;;;;;6211385;23;20008;-75
2023/08/05 11:28:47;;;;;;;3.40;3.10;;;24.10;92.40;;;;;;6211811;23;20001;-75
2023/08/05 11:31:22;;;;;;;5.78;3.22;;;24.20;92.30;;;;;;6211619;23;20048;-75
2023/08/05 11:33:50;;;;;;;3.05;2.15;;;24.30;92.10;;;;;;6185586;23;20453;-75
2023/08/05 11:36:16;;;;;;;2.75;2.17;;;24.30;91.90;;;;;;6184437;23;20332;-75
2023/08/05 11:38:42;;;;;;;4.70;2.15;;;24.30;92.00;;;;;;6212806;23;20054;-75
2023/08/05 11:41:08;;;;;;;4.32;2.13;;;24.10;92.00;;;;;;6211742;23;20072;-75
2023/08/05 11:43:35;;;;;;;3.47;2.10;;;24.00;92.10;;;;;;6211944;23;20008;-75
2023/08/05 11:46:01;;;;;;;3.35;1.85;;;23.80;92.20;;;;;;6211734;23;19997;-75
2023/08/05 11:48:27;;;;;;;2.78;2.42;;;23.60;92.40;;;;;;6211709;23;20308;-74
2023/08/05 11:50:58;;;;;;;3.28;2.97;;;23.50;92.40;;;;;;6211357;23;20036;-74
2023/08/05 11:53:28;;;;;;;2.55;1.92;;;23.20;92.40;;;;;;6188191;23;20016;-74
2023/08/05 11:55:54;;;;;;;3.72;1.88;;;22.90;92.70;;;;;;6212037;23;20009;-74
2023/08/05 11:58:20;;;;;;;4.55;3.50;;;22.70;93.20;;;;;;6211160;23;20326;-74
2023/08/05 12:00:49;;;;;;;6.57;4.32;;;22.50;94.10;;;;;;6211879;23;20461;-73
2023/08/05 12:03:15;;;;;;;5.07;4.15;;;22.10;95.00;;;;;;6211324;23;20482;-73
2023/08/05 12:05:42;;;;;;;4.35;3.88;;;21.80;96.10;;;;;;6211162;23;20042;-73
2023/08/05 12:08:07;;;;;;;4.25;3.88;;;21.50;96.40;;;;;;6211472;23;20071;-73
2023/08/05 12:10:33;;;;;;;5.95;4.85;;;21.30;97.00;;;;;;6211660;23;20331;-73
2023/08/05 12:13:03;;;;;;;5.40;5.00;;;21.10;97.80;;;;;;6211852;23;20007;-73
2023/08/05 12:15:29;;;;;;;6.10;4.45;;;20.90;98.40;;;;;;6209656;23;20083;-73
2023/08/05 12:18:01;;;;;;;6.30;5.80;;;20.80;98.80;;;;;;6211810;23;20007;-73
2023/08/05 12:20:31;;;;;;;5.57;5.07;;;20.70;99.20;;;;;;6211176;23;20164;-73
2023/08/05 12:23:00;;;;;;;5.25;4.80;;;20.60;99.50;;;;;;6211720;23;20019;-73
2023/08/05 12:25:27;;;;;;;7.80;5.40;;;20.60;99.90;;;;;;6211423;23;20020;-73
2023/08/05 12:27:53;;;;;;;4.72;4.32;;;20.50;99.90;;;;;;6211458;23;20477;-73
2023/08/05 12:30:19;;;;;;;5.60;4.85;;;20.50;99.90;;;;;;6211268;23;20152;-73
2023/08/05 12:32:44;;;;;;;9.73;7.55;;;20.50;99.90;;;;;;6211346;23;20036;-73
2023/08/05 12:35:11;;;;;;;5.43;4.93;;;20.50;99.90;;;;;;6209098;23;20015;-73
2023/08/05 12:37:38;;;;;;;8.38;5.70;;;20.50;99.90;;;;;;6211590;23;20009;-73
2023/08/05 12:40:06;;;;;;;5.65;4.55;;;20.40;99.90;;;;;;6210695;23;19997;-73
2023/08/05 12:42:32;;;;;;;6.05;5.55;;;20.30;99.90;;;;;;6210835;23;20011;-73
2023/08/05 12:45:00;;;;;;;6.18;5.50;;;20.20;99.90;;;;;;6211502;23;20024;-73